createdAt,value
2019-04-28T00:00:47.680Z,5.80
2019-04-28T00:07:33.935Z,5.90
2019-04-28T00:14:19.106Z,5.80
2019-04-28T00:21:18.238Z,5.90
2019-04-28T00:28:03.755Z,6.00
2019-04-28T00:34:48.685Z,6.40
2019-04-28T00:41:33.796Z,6.60
2019-04-28T00:48:18.818Z,6.70
2019-04-28T00:55:05.323Z,6.70
2019-04-28T01:01:52.102Z,6.70
2019-04-28T01:08:37.101Z,6.80
2019-04-28T01:15:35.560Z,6.90
2019-04-28T01:22:20.546Z,6.90
2019-04-28T01:29:05.866Z,6.80
2019-04-28T01:35:50.867Z,6.60
2019-04-28T01:42:35.722Z,6.40
2019-04-28T01:49:20.559Z,6.20
2019-04-28T01:56:05.623Z,6.10
2019-04-28T02:02:50.669Z,6.20
2019-04-28T02:09:36.258Z,6.50
2019-04-28T02:16:21.284Z,6.60
2019-04-28T02:23:09.436Z,6.70
2019-04-28T02:29:54.421Z,6.70
2019-04-28T02:36:40.785Z,6.70
2019-04-28T02:43:27.743Z,6.60
2019-04-28T02:50:17.163Z,6.50
2019-04-28T02:57:02.244Z,6.50
2019-04-28T03:03:47.239Z,6.50
2019-04-28T03:10:33.501Z,6.50
2019-04-28T03:17:20.802Z,6.30
2019-04-28T03:24:05.379Z,5.90
2019-04-28T03:31:36.548Z,5.50
2019-04-28T03:37:56.718Z,5.50
2019-04-28T03:44:41.763Z,5.30
2019-04-28T03:51:27.025Z,5.40
2019-04-28T03:58:12.140Z,5.30
2019-04-28T04:04:57.239Z,5.30
2019-04-28T04:12:00.370Z,5.30
2019-04-28T04:18:53.144Z,5.10
2019-04-28T04:25:35.730Z,5.00
2019-04-28T04:32:26.222Z,5.20
2019-04-28T04:39:10.619Z,5.50
2019-04-28T04:46:14.647Z,5.70
2019-04-28T04:53:02.641Z,6.10
2019-04-28T04:59:47.459Z,6.90
2019-04-28T05:06:36.818Z,6.90
2019-04-28T05:13:22.046Z,6.70
2019-04-28T05:20:07.513Z,6.70
2019-04-28T05:26:52.562Z,6.80
2019-04-28T05:33:37.414Z,7.00
2019-04-28T05:40:23.413Z,7.50
2019-04-28T05:47:09.902Z,7.80
2019-04-28T05:53:56.612Z,8.40
2019-04-28T06:00:51.850Z,11.00
2019-04-28T06:07:55.864Z,19.50
2019-04-28T06:14:42.330Z,25.80
2019-04-28T06:21:27.399Z,28.00
2019-04-28T06:28:12.381Z,27.70
2019-04-28T06:34:57.264Z,28.50
2019-04-28T06:41:42.131Z,31.00
2019-04-28T06:48:27.301Z,31.50
2019-04-28T06:55:12.444Z,32.30
2019-04-28T07:01:57.532Z,33.60
2019-04-28T07:08:42.428Z,33.90
2019-04-28T07:15:27.429Z,30.50
2019-04-28T07:22:15.142Z,22.50
2019-04-28T07:29:00.146Z,18.50
2019-04-28T07:35:45.245Z,15.90
2019-04-28T07:42:30.199Z,15.90
2019-04-28T07:49:15.358Z,17.80
2019-04-28T07:56:00.534Z,16.60
2019-04-28T08:02:46.682Z,17.90
2019-04-28T08:09:32.139Z,22.70
2019-04-28T08:16:17.140Z,23.60
2019-04-28T08:23:02.701Z,20.60
2019-04-28T08:29:58.048Z,16.00
2019-04-28T08:36:35.092Z,12.70
2019-04-28T08:43:22.098Z,11.20
2019-04-28T08:50:07.609Z,11.70
2019-04-28T08:56:52.575Z,19.90
2019-04-28T09:03:37.485Z,23.70
2019-04-28T09:10:22.523Z,22.30
2019-04-28T09:17:07.653Z,21.40
2019-04-28T09:23:52.683Z,19.40
2019-04-28T09:30:37.679Z,16.30
2019-04-28T09:37:22.645Z,12.20
2019-04-28T09:44:12.210Z,10.50
2019-04-28T09:50:57.312Z,10.40
2019-04-28T09:57:42.314Z,11.70
2019-04-28T10:04:27.271Z,15.20
2019-04-28T10:11:12.272Z,23.30
2019-04-28T10:17:57.511Z,23.40
2019-04-28T10:24:42.445Z,22.00
2019-04-28T10:31:27.452Z,19.70
2019-04-28T10:38:12.566Z,16.20
2019-04-28T10:44:57.975Z,13.70
2019-04-28T10:51:42.956Z,13.80
2019-04-28T10:58:28.015Z,13.70
2019-04-28T11:05:14.920Z,12.90
2019-04-28T11:12:00.226Z,12.30
2019-04-28T11:18:45.330Z,12.90
2019-04-28T11:25:30.958Z,13.40
2019-04-28T11:32:17.087Z,13.50
2019-04-28T11:39:03.747Z,15.50
2019-04-28T11:45:50.414Z,16.40
2019-04-28T11:52:35.623Z,15.70
2019-04-28T11:59:23.092Z,15.00
2019-04-28T12:06:09.095Z,13.40
2019-04-28T12:13:12.310Z,12.50
2019-04-28T12:19:58.923Z,11.90
2019-04-28T12:26:43.931Z,10.70
2019-04-28T12:33:29.015Z,10.20
2019-04-28T12:40:14.194Z,10.20
2019-04-28T12:46:59.194Z,10.60
2019-04-28T12:53:44.204Z,11.00
2019-04-28T13:00:30.715Z,11.60
2019-04-28T13:07:15.647Z,11.90
2019-04-28T13:14:00.503Z,13.10
2019-04-28T13:20:45.456Z,13.50
2019-04-28T13:27:30.429Z,13.40
2019-04-28T13:34:17.082Z,13.10
2019-04-28T13:41:01.963Z,12.80
2019-04-28T13:47:47.039Z,12.90
2019-04-28T13:54:32.032Z,13.20
2019-04-28T14:01:21.958Z,13.30
2019-04-28T14:08:07.162Z,13.10
2019-04-28T14:14:52.078Z,13.40
2019-04-28T14:21:36.969Z,13.70
2019-04-28T14:28:21.910Z,13.70
2019-04-28T14:35:07.195Z,13.70
2019-04-28T14:41:52.574Z,13.10
2019-04-28T14:48:39.139Z,12.60
2019-04-28T14:55:24.229Z,12.40
2019-04-28T15:02:13.557Z,12.20
2019-04-28T15:09:09.031Z,12.10
2019-04-28T15:15:55.626Z,12.10
2019-04-28T15:22:40.736Z,12.10
2019-04-28T15:29:25.939Z,12.40
2019-04-28T15:36:10.867Z,12.80
2019-04-28T15:42:55.911Z,12.50
2019-04-28T15:49:40.871Z,12.60
2019-04-28T15:56:37.124Z,12.90
2019-04-28T16:03:22.107Z,13.20
2019-04-28T16:10:08.109Z,13.40
2019-04-28T16:16:53.093Z,13.70
2019-04-28T16:23:38.051Z,14.00
2019-04-28T16:30:23.016Z,14.10
2019-04-28T16:37:07.857Z,15.00
2019-04-28T16:44:13.926Z,15.00
2019-04-28T16:50:58.815Z,14.50
2019-04-28T16:57:45.418Z,13.80
2019-04-28T17:04:30.741Z,13.20
2019-04-28T17:11:15.631Z,12.80
2019-04-28T17:18:00.567Z,12.60
2019-04-28T17:24:45.636Z,12.70
2019-04-28T17:31:30.560Z,12.90
2019-04-28T17:38:15.439Z,12.80
2019-04-28T17:45:00.507Z,12.40
2019-04-28T17:51:45.510Z,12.10
2019-04-28T17:58:30.451Z,11.90
2019-04-28T18:05:19.652Z,11.60
2019-04-28T18:12:06.400Z,11.40
2019-04-28T18:19:08.060Z,11.20
2019-04-28T18:25:53.132Z,11.10
2019-04-28T18:32:56.403Z,10.80
2019-04-28T18:40:01.549Z,10.50
2019-04-28T18:46:48.899Z,10.30
2019-04-28T18:53:33.803Z,10.00
2019-04-28T19:00:20.388Z,9.70
2019-04-28T19:07:07.113Z,9.60
2019-04-28T19:14:02.394Z,9.40
2019-04-28T19:20:47.615Z,9.20
2019-04-28T19:27:33.431Z,9.00
2019-04-28T19:34:18.274Z,8.80
2019-04-28T19:41:03.231Z,8.60
2019-04-28T19:47:48.194Z,8.50
2019-04-28T19:54:34.699Z,8.40
2019-04-28T20:01:26.722Z,8.50
2019-04-28T20:08:11.641Z,8.60
2019-04-28T20:14:56.641Z,8.60
2019-04-28T20:21:41.612Z,8.50
2019-04-28T20:28:26.550Z,8.50
2019-04-28T20:35:11.888Z,8.40
2019-04-28T20:41:58.722Z,8.30
2019-04-28T20:48:52.577Z,8.20
2019-04-28T20:55:37.535Z,8.00
2019-04-28T21:02:22.956Z,7.90
2019-04-28T21:09:09.683Z,7.90
2019-04-28T21:15:55.500Z,7.80
2019-04-28T21:22:40.756Z,7.60
2019-04-28T21:29:25.687Z,7.40
2019-04-28T21:36:10.654Z,7.30
2019-04-28T21:42:57.468Z,7.20
2019-04-28T21:49:43.664Z,7.10
2019-04-28T21:56:28.645Z,6.90
2019-04-28T22:03:13.714Z,6.80
2019-04-28T22:09:58.712Z,6.70
2019-04-28T22:16:43.663Z,6.70
2019-04-28T22:23:46.466Z,6.50
2019-04-28T22:30:31.434Z,6.40
2019-04-28T22:37:16.399Z,6.40
2019-04-28T22:44:01.483Z,6.30
2019-04-28T22:50:47.228Z,6.30
2019-04-28T22:57:50.025Z,6.10
2019-04-28T23:04:39.338Z,6.00
2019-04-28T23:11:24.608Z,5.90
2019-04-28T23:18:09.671Z,5.70
2019-04-28T23:24:54.799Z,5.50
2019-04-28T23:31:39.947Z,5.40
2019-04-28T23:38:24.895Z,5.50
2019-04-28T23:45:12.191Z,5.40
2019-04-28T23:52:14.808Z,5.30
2019-04-28T23:58:59.919Z,5.30
